Time,TemperatureF,DewpointF,PressureIn,WindDirection,WindDirectionDegrees,WindSpeedMPH,WindSpeedGustMPH,Humidity,HourlyPrecipIn,Conditions,Clouds,dailyrainin,SoftwareType,DateUTC
2013-11-16 00:00:00,39.0,23.0,30.47,NW,325,3.0,3.0,52,0.00,,,0.00,weatherlink.com 1.10,2013-11-16 05:00:00,
2013-11-16 00:15:00,39.2,23.0,30.46,NNW,330,1.0,4.0,52,0.00,,,0.00,weatherlink.com 1.10,2013-11-16 05:15:00,
2013-11-16 00:30:00,40.1,23.0,30.45,NW,319,2.0,6.0,50,0.00,,,0.00,weatherlink.com 1.10,2013-11-16 05:30:00,
2013-11-16 00:45:00,40.7,23.0,30.46,NW,322,3.0,3.0,50,0.00,,,0.00,weatherlink.com 1.10,2013-11-16 05:45:00,
2013-11-16 01:00:00,40.7,24.0,30.46,NNW,330,3.0,4.0,51,0.00,,,0.00,weatherlink.com 1.10,2013-11-16 06:00:00,
2013-11-16 01:15:00,40.6,24.0,30.46,NW,325,2.0,4.0,53,0.00,,,0.00,weatherlink.com 1.10,2013-11-16 06:15:00,
2013-11-16 01:30:00,41.0,24.0,30.47,NW,308,2.0,4.0,52,0.00,,,0.00,weatherlink.com 1.10,2013-11-16 06:30:00,
2013-11-16 01:45:00,41.9,21.0,30.48,NW,314,2.0,4.0,43,0.00,,,0.00,weatherlink.com 1.10,2013-11-16 06:45:00,
2013-11-16 02:00:00,42.6,22.0,30.48,SE,137,1.0,5.0,45,0.00,,,0.00,weatherlink.com 1.10,2013-11-16 07:00:00,
2013-11-16 02:15:00,42.0,25.0,30.49,SSE,165,0.0,4.0,51,0.00,,,0.00,weatherlink.com 1.10,2013-11-16 07:15:00,
2013-11-16 02:30:00,41.0,27.0,30.50,South,173,4.0,6.0,57,0.00,,,0.00,weatherlink.com 1.10,2013-11-16 07:30:00,
2013-11-16 02:45:00,40.1,31.0,30.50,SW,233,0.0,9.0,71,0.00,,,0.00,weatherlink.com 1.10,2013-11-16 07:45:00,
2013-11-16 03:00:00,39.1,34.0,30.50,SE,125,2.0,7.0,81,0.00,,,0.00,weatherlink.com 1.10,2013-11-16 08:00:00,
2013-11-16 03:15:00,38.4,35.0,30.50,NNE,18,3.0,4.0,86,0.00,,,0.00,weatherlink.com 1.10,2013-11-16 08:15:00,
2013-11-16 03:30:00,37.8,35.0,30.50,WSW,246,2.0,4.0,88,0.00,,,0.00,weatherlink.com 1.10,2013-11-16 08:30:00,
2013-11-16 03:45:00,37.5,35.0,30.50,East,93,0.0,3.0,90,0.01,,,0.01,weatherlink.com 1.10,2013-11-16 08:45:00,
2013-11-16 04:00:00,37.3,35.0,30.50,North,6,2.0,2.0,91,0.01,,,0.01,weatherlink.com 1.10,2013-11-16 09:00:00,
2013-11-16 04:15:00,37.1,35.0,30.50,North,6,0.0,0.0,93,0.01,,,0.01,weatherlink.com 1.10,2013-11-16 09:15:00,
2013-11-16 04:30:00,37.0,35.0,30.50,SW,233,0.0,1.0,93,0.01,,,0.01,weatherlink.com 1.10,2013-11-16 09:30:00,
2013-11-16 04:45:00,36.8,35.0,30.50,WSW,253,0.0,1.0,94,0.00,,,0.01,weatherlink.com 1.10,2013-11-16 09:45:00,
2013-11-16 05:00:00,36.4,35.0,30.49,WSW,255,1.0,1.0,94,0.00,,,0.01,weatherlink.com 1.10,2013-11-16 10:00:00,
2013-11-16 05:15:00,35.9,34.0,30.48,NW,318,1.0,2.0,94,0.00,,,0.01,weatherlink.com 1.10,2013-11-16 10:15:00,
2013-11-16 05:30:00,35.0,34.0,30.48,NW,323,2.0,2.0,95,0.00,,,0.01,weatherlink.com 1.10,2013-11-16 10:30:00,
2013-11-16 05:45:00,34.5,33.0,30.48,NW,323,2.0,3.0,95,0.00,,,0.01,weatherlink.com 1.10,2013-11-16 10:45:00,
2013-11-16 06:00:00,33.9,33.0,30.49,NW,323,2.0,2.0,95,0.00,,,0.01,weatherlink.com 1.10,2013-11-16 11:00:00,
2013-11-16 06:15:00,33.5,32.0,30.49,NW,326,2.0,3.0,95,0.00,,,0.01,weatherlink.com 1.10,2013-11-16 11:15:00,
2013-11-16 06:30:00,33.8,33.0,30.50,NW,322,2.0,3.0,96,0.00,,,0.01,weatherlink.com 1.10,2013-11-16 11:30:00,
2013-11-16 06:45:00,33.3,32.0,30.50,NW,325,2.0,3.0,95,0.00,,,0.01,weatherlink.com 1.10,2013-11-16 11:45:00,
2013-11-16 07:00:00,33.3,32.0,30.51,NNW,328,2.0,3.0,96,0.00,,,0.01,weatherlink.com 1.10,2013-11-16 12:00:00,
2013-11-16 07:15:00,33.2,32.0,30.52,NW,319,1.0,3.0,96,0.00,,,0.01,weatherlink.com 1.10,2013-11-16 12:15:00,
2013-11-16 07:30:00,33.7,33.0,30.52,NW,319,0.0,0.0,96,0.00,,,0.01,weatherlink.com 1.10,2013-11-16 12:30:00,
2013-11-16 07:45:00,35.0,34.0,30.53,NW,319,0.0,0.0,96,0.00,,,0.01,weatherlink.com 1.10,2013-11-16 12:45:00,
2013-11-16 08:00:00,37.5,37.0,30.53,NW,319,0.0,0.0,97,0.00,,,0.01,weatherlink.com 1.10,2013-11-16 13:00:00,
2013-11-16 08:15:00,39.7,38.0,30.53,WSW,247,0.0,1.0,93,0.00,,,0.01,weatherlink.com 1.10,2013-11-16 13:15:00,
2013-11-16 08:31:00,40.9,38.0,30.53,SSE,150,1.0,2.0,89,0.00,,,0.01,weatherlink.com 1.10,2013-11-16 13:31:00,
2013-11-16 08:46:00,41.9,38.0,30.54,South,172,0.0,2.0,87,0.00,,,0.01,weatherlink.com 1.10,2013-11-16 13:46:00,
2013-11-16 09:01:00,43.2,39.0,30.54,SW,222,1.0,1.0,84,0.00,,,0.01,weatherlink.com 1.10,2013-11-16 14:01:00,
2013-11-16 09:16:00,44.6,40.0,30.54,SSW,203,0.0,2.0,83,0.00,,,0.01,weatherlink.com 1.10,2013-11-16 14:16:00,
2013-11-16 09:31:00,45.6,40.0,30.54,SSW,208,2.0,4.0,80,0.00,,,0.01,weatherlink.com 1.10,2013-11-16 14:31:00,
2013-11-16 09:46:00,46.4,39.0,30.55,SSW,212,0.0,3.0,76,0.00,,,0.01,weatherlink.com 1.10,2013-11-16 14:46:00,
2013-11-16 10:01:00,48.5,40.0,30.55,SSE,155,1.0,4.0,72,0.00,,,0.01,weatherlink.com 1.10,2013-11-16 15:01:00,
2013-11-16 10:16:00,49.6,38.0,30.55,SSW,210,2.0,5.0,65,0.00,,,0.01,weatherlink.com 1.10,2013-11-16 15:16:00,
2013-11-16 10:31:00,49.5,37.0,30.55,ENE,74,0.0,5.0,63,0.00,,,0.01,weatherlink.com 1.10,2013-11-16 15:31:00,
2013-11-16 10:46:00,49.8,37.0,30.55,ENE,61,3.0,5.0,62,0.00,,,0.01,weatherlink.com 1.10,2013-11-16 15:46:00,
2013-11-16 11:01:00,50.1,37.0,30.55,SSW,212,2.0,6.0,61,0.00,,,0.01,weatherlink.com 1.10,2013-11-16 16:01:00,
2013-11-16 11:16:00,50.1,37.0,30.54,West,268,1.0,7.0,62,0.00,,,0.01,weatherlink.com 1.10,2013-11-16 16:16:00,
2013-11-16 11:32:00,51.9,37.0,30.53,WNW,285,1.0,5.0,58,0.00,,,0.01,weatherlink.com 1.10,2013-11-16 16:32:00,
2013-11-16 11:46:00,52.2,37.0,30.52,SW,216,1.0,3.0,56,0.00,,,0.01,weatherlink.com 1.10,2013-11-16 16:46:00,
2013-11-16 12:01:00,52.0,37.0,30.52,NW,309,2.0,4.0,57,0.00,,,0.01,weatherlink.com 1.10,2013-11-16 17:01:00,
2013-11-16 12:17:00,52.6,35.0,30.52,WNW,295,1.0,5.0,52,0.00,,,0.01,weatherlink.com 1.10,2013-11-16 17:17:00,
2013-11-16 12:31:00,52.1,34.0,30.51,SW,232,0.0,4.0,50,0.00,,,0.01,weatherlink.com 1.10,2013-11-16 17:31:00,
2013-11-16 12:46:00,52.8,34.0,30.50,SW,233,0.0,3.0,49,0.00,,,0.01,weatherlink.com 1.10,2013-11-16 17:46:00,
2013-11-16 13:01:00,53.6,34.0,30.51,SW,235,0.0,5.0,48,0.00,,,0.01,weatherlink.com 1.10,2013-11-16 18:01:00,
2013-11-16 13:31:00,53.6,33.0,30.51,SW,224,1.0,5.0,45,0.00,,,0.01,weatherlink.com 1.10,2013-11-16 18:31:00,
2013-11-16 13:46:00,53.8,31.0,30.50,WSW,252,1.0,6.0,42,0.00,,,0.01,weatherlink.com 1.10,2013-11-16 18:46:00,
2013-11-16 14:01:00,53.7,31.0,30.50,WNW,289,1.0,5.0,43,0.00,,,0.01,weatherlink.com 1.10,2013-11-16 19:01:00,
2013-11-16 14:16:00,53.1,32.0,30.50,SW,228,0.0,2.0,44,0.00,,,0.01,weatherlink.com 1.10,2013-11-16 19:16:00,
2013-11-16 14:31:00,52.3,31.0,30.50,SW,225,1.0,3.0,44,0.00,,,0.01,weatherlink.com 1.10,2013-11-16 19:31:00,
2013-11-16 14:46:00,51.8,31.0,30.49,NW,315,2.0,5.0,45,0.00,,,0.01,weatherlink.com 1.10,2013-11-16 19:46:00,
2013-11-16 15:01:00,51.6,30.0,30.50,WSW,252,0.0,2.0,44,0.00,,,0.01,weatherlink.com 1.10,2013-11-16 20:01:00,
2013-11-16 15:16:00,51.1,32.0,30.50,NW,326,0.0,2.0,48,0.00,,,0.01,weatherlink.com 1.10,2013-11-16 20:16:00,
2013-11-16 15:31:00,49.9,32.0,30.50,NNW,329,1.0,2.0,50,0.00,,,0.01,weatherlink.com 1.10,2013-11-16 20:31:00,
2013-11-16 15:46:00,48.9,33.0,30.50,NW,316,1.0,2.0,54,0.00,,,0.01,weatherlink.com 1.10,2013-11-16 20:46:00,
2013-11-16 16:01:00,47.8,32.0,30.49,NW,318,0.0,2.0,55,0.00,,,0.01,weatherlink.com 1.10,2013-11-16 21:01:00,
2013-11-16 16:16:00,46.3,33.0,30.49,NW,319,1.0,2.0,60,0.00,,,0.01,weatherlink.com 1.10,2013-11-16 21:16:00,
2013-11-16 16:31:00,45.6,32.0,30.49,NW,323,1.0,3.0,60,0.00,,,0.01,weatherlink.com 1.10,2013-11-16 21:31:00,
2013-11-16 16:46:00,45.7,33.0,30.49,SSE,160,1.0,4.0,61,0.00,,,0.01,weatherlink.com 1.10,2013-11-16 21:46:00,
2013-11-16 17:01:00,45.9,33.0,30.49,SW,222,0.0,2.0,60,0.00,,,0.01,weatherlink.com 1.10,2013-11-16 22:01:00,
2013-11-16 17:16:00,46.3,33.0,30.49,WSW,256,1.0,3.0,60,0.00,,,0.01,weatherlink.com 1.10,2013-11-16 22:16:00,
2013-11-16 17:31:00,45.3,32.0,30.50,West,269,1.0,1.0,61,0.00,,,0.01,weatherlink.com 1.10,2013-11-16 22:31:00,
2013-11-16 20:33:00,43.3,36.0,30.51,SSW,200,1.0,5.0,76,0.00,,,0.01,weatherlink.com 1.10,2013-11-17 01:33:00,
2013-11-16 20:47:00,43.2,36.0,30.52,SW,217,4.0,5.0,76,0.00,,,0.01,weatherlink.com 1.10,2013-11-17 01:47:00,
2013-11-16 21:02:00,43.2,37.0,30.51,South,179,1.0,6.0,79,0.00,,,0.01,weatherlink.com 1.10,2013-11-17 02:02:00,
2013-11-16 21:17:00,43.1,37.0,30.51,East,96,1.0,7.0,80,0.00,,,0.01,weatherlink.com 1.10,2013-11-17 02:17:00,
2013-11-16 21:32:00,43.5,37.0,30.51,SE,135,2.0,4.0,79,0.00,,,0.01,weatherlink.com 1.10,2013-11-17 02:32:00,
2013-11-16 21:47:00,42.6,38.0,30.51,South,184,2.0,3.0,82,0.00,,,0.01,weatherlink.com 1.10,2013-11-17 02:47:00,
2013-11-16 22:02:00,42.5,37.0,30.51,WNW,300,0.0,2.0,82,0.00,,,0.01,weatherlink.com 1.10,2013-11-17 03:02:00,
2013-11-16 22:17:00,41.7,37.0,30.50,NW,316,0.0,3.0,83,0.00,,,0.01,weatherlink.com 1.10,2013-11-17 03:17:00,
2013-11-16 22:32:00,41.4,37.0,30.50,NW,322,1.0,2.0,83,0.00,,,0.01,weatherlink.com 1.10,2013-11-17 03:32:00,
2013-11-16 22:47:00,41.1,36.0,30.50,NNW,335,1.0,2.0,83,0.00,,,0.01,weatherlink.com 1.10,2013-11-17 03:47:00,
2013-11-16 23:02:00,42.0,37.0,30.50,SW,222,1.0,4.0,81,0.00,,,0.01,weatherlink.com 1.10,2013-11-17 04:02:00,
2013-11-16 23:17:00,41.4,37.0,30.50,NNW,348,0.0,4.0,83,0.00,,,0.01,weatherlink.com 1.10,2013-11-17 04:17:00,
2013-11-16 23:32:00,42.3,38.0,30.49,SSW,200,0.0,7.0,84,0.00,,,0.01,weatherlink.com 1.10,2013-11-17 04:32:00,
2013-11-16 23:47:00,41.9,38.0,30.49,NW,312,0.0,1.0,85,0.00,,,0.01,weatherlink.com 1.10,2013-11-17 04:47:00,